createdAt,value
2022-12-31T00:00:59.542Z,99426.88
2022-12-31T00:03:26.506Z,99426.88
2022-12-31T00:05:53.576Z,99430.13
2022-12-31T00:08:20.356Z,99436.00
2022-12-31T00:10:47.319Z,99448.00
2022-12-31T00:13:14.565Z,99435.63
2022-12-31T00:15:42.372Z,99434.81
2022-12-31T00:18:09.765Z,99434.59
2022-12-31T00:20:41.281Z,99436.22
2022-12-31T00:23:09.699Z,99426.28
2022-12-31T00:25:36.666Z,99442.13
2022-12-31T00:28:04.783Z,99451.84
2022-12-31T00:30:31.843Z,99445.56
2022-12-31T00:32:59.251Z,99431.75
2022-12-31T00:35:27.189Z,99442.13
2022-12-31T00:37:54.055Z,99427.91
2022-12-31T00:40:20.927Z,99425.84
2022-12-31T00:42:47.747Z,99432.75
2022-12-31T00:45:16.028Z,99446.78
2022-12-31T00:47:42.774Z,99443.94
2022-12-31T00:50:09.738Z,99450.03
2022-12-31T00:52:36.612Z,99456.13
2022-12-31T00:55:03.427Z,99450.03
2022-12-31T00:57:30.365Z,99460.19
2022-12-31T00:59:57.263Z,99450.66
2022-12-31T01:02:24.369Z,99455.13
2022-12-31T01:04:51.515Z,99458.78
2022-12-31T01:07:18.386Z,99452.25
2022-12-31T01:09:45.400Z,99458.78
2022-12-31T01:12:12.445Z,99439.25
2022-12-31T01:14:39.308Z,99438.25
2022-12-31T01:17:06.189Z,99432.97
2022-12-31T01:19:32.914Z,99413.66
2022-12-31T01:21:59.803Z,99415.28
2022-12-31T01:24:26.515Z,99413.47
2022-12-31T01:26:56.475Z,99419.56
2022-12-31T01:29:23.185Z,99412.66
2022-12-31T01:31:50.366Z,99402.72
2022-12-31T01:34:17.164Z,99414.09
2022-12-31T01:36:43.975Z,99438.25
2022-12-31T01:39:11.344Z,99450.63
2022-12-31T01:41:40.959Z,99465.06
2022-12-31T01:44:17.580Z,99457.53
2022-12-31T01:46:47.734Z,99449.03
2022-12-31T01:49:22.057Z,99436.00
2022-12-31T01:51:51.823Z,99447.59
2022-12-31T01:54:19.864Z,99464.47
2022-12-31T01:56:48.278Z,99465.03
2022-12-31T01:59:17.480Z,99455.09
2022-12-31T02:01:46.779Z,99452.88
2022-12-31T02:04:14.986Z,99447.59
2022-12-31T02:06:44.752Z,99449.41
2022-12-31T02:09:11.798Z,99449.59
2022-12-31T02:11:38.696Z,99448.78
2022-12-31T02:14:11.625Z,99452.25
2022-12-31T02:16:53.364Z,99441.09
2022-12-31T02:19:23.286Z,99443.72
2022-12-31T02:21:55.881Z,99443.72
2022-12-31T02:24:38.155Z,99442.91
2022-12-31T02:27:09.259Z,99447.97
2022-12-31T02:29:45.418Z,99439.03
2022-12-31T02:32:16.577Z,99435.22
2022-12-31T02:34:48.523Z,99433.16
2022-12-31T02:37:16.559Z,99448.19
2022-12-31T02:39:43.899Z,99461.38
2022-12-31T02:42:11.190Z,99456.31
2022-12-31T02:44:38.904Z,99445.56
2022-12-31T02:47:07.430Z,99442.09
2022-12-31T02:49:37.329Z,99452.25
2022-12-31T02:52:12.992Z,99458.97
2022-12-31T02:54:59.538Z,99464.25
2022-12-31T02:57:30.975Z,99461.78
2022-12-31T03:00:10.373Z,99464.44
2022-12-31T03:02:39.926Z,99462.41
2022-12-31T03:05:07.464Z,99473.38
2022-12-31T03:07:34.390Z,99465.47
2022-12-31T03:10:01.501Z,99477.66
2022-12-31T03:12:40.246Z,99468.72
2022-12-31T03:15:07.433Z,99453.66
2022-12-31T03:17:34.678Z,99444.75
2022-12-31T03:20:12.182Z,99445.56
2022-12-31T03:22:40.703Z,99428.31
2022-12-31T03:25:18.770Z,99432.78
2022-12-31T03:27:45.877Z,99435.78
2022-12-31T03:30:13.935Z,99426.28
2022-12-31T03:32:40.958Z,99413.88
2022-12-31T03:35:08.205Z,99413.88
2022-12-31T03:37:34.851Z,99398.03
2022-12-31T03:40:01.487Z,99399.66
2022-12-31T03:42:28.283Z,99392.34
2022-12-31T03:44:54.851Z,99395.00
2022-12-31T03:47:21.549Z,99383.19
2022-12-31T03:49:48.220Z,99370.81
2022-12-31T03:52:14.853Z,99369.81
2022-12-31T03:54:41.490Z,99373.06
2022-12-31T03:57:08.269Z,99364.34
2022-12-31T03:59:35.076Z,99374.69
2022-12-31T04:02:02.047Z,99362.09
2022-12-31T04:04:28.775Z,99358.44
2022-12-31T04:06:55.426Z,99349.69
2022-12-31T04:09:22.303Z,99338.94
2022-12-31T04:11:48.980Z,99334.25
2022-12-31T04:14:17.454Z,99327.38
2022-12-31T04:16:44.700Z,99314.75
2022-12-31T04:19:11.814Z,99320.84
2022-12-31T04:21:38.608Z,99315.78
2022-12-31T04:24:05.602Z,99317.41
2022-12-31T04:26:32.343Z,99313.13
2022-12-31T04:28:59.101Z,99320.84
2022-12-31T04:31:25.867Z,99324.69
2022-12-31T04:33:52.543Z,99320.84
2022-12-31T04:36:19.184Z,99326.75
2022-12-31T04:38:46.059Z,99319.44
2022-12-31T04:41:22.850Z,99329.81
2022-12-31T04:43:51.908Z,99338.13
2022-12-31T04:46:20.213Z,99329.38
2022-12-31T04:48:47.083Z,99328.94
2022-12-31T04:51:14.247Z,99331.19
2022-12-31T04:53:40.970Z,99342.16
2022-12-31T04:56:08.046Z,99331.97
2022-12-31T04:58:35.124Z,99333.41
2022-12-31T05:01:01.908Z,99336.22
2022-12-31T05:03:28.792Z,99340.88
2022-12-31T05:06:00.216Z,99329.50
2022-12-31T05:08:26.918Z,99328.84
2022-12-31T05:10:53.594Z,99328.22
2022-12-31T05:13:20.263Z,99341.63
2022-12-31T05:15:47.181Z,99351.38
2022-12-31T05:18:13.868Z,99342.81
2022-12-31T05:20:40.479Z,99346.22
2022-12-31T05:23:07.348Z,99348.00
2022-12-31T05:25:34.331Z,99336.59
2022-12-31T05:28:01.135Z,99348.16
2022-12-31T05:30:27.872Z,99346.50
2022-12-31T05:32:54.557Z,99348.91
2022-12-31T05:35:21.194Z,99338.47
2022-12-31T05:37:47.870Z,99360.84
2022-12-31T05:40:14.627Z,99357.13
2022-12-31T05:42:41.259Z,99348.38
2022-12-31T05:45:08.309Z,99353.03
2022-12-31T05:47:34.991Z,99354.22
2022-12-31T05:50:01.624Z,99350.94
2022-12-31T05:52:29.062Z,99348.66
2022-12-31T05:54:55.654Z,99354.91
2022-12-31T05:57:22.262Z,99369.34
2022-12-31T05:59:49.504Z,99376.06
2022-12-31T06:02:16.245Z,99367.91
2022-12-31T06:04:43.140Z,99367.47
2022-12-31T06:07:09.798Z,99383.97
2022-12-31T06:09:36.654Z,99386.63
2022-12-31T06:12:03.605Z,99399.63
2022-12-31T06:14:30.233Z,99395.94
2022-12-31T06:16:57.075Z,99408.16
2022-12-31T06:19:24.113Z,99411.19
2022-12-31T06:21:51.090Z,99412.81
2022-12-31T06:24:18.139Z,99410.97
2022-12-31T06:26:44.805Z,99412.59
2022-12-31T06:29:11.633Z,99411.59
2022-12-31T06:31:38.271Z,99421.13
2022-12-31T06:34:05.095Z,99428.25
2022-12-31T06:36:31.892Z,99429.88
2022-12-31T06:38:58.609Z,99416.06
2022-12-31T06:41:25.433Z,99415.25
2022-12-31T06:43:52.189Z,99409.97
2022-12-31T06:46:18.976Z,99402.00
2022-12-31T06:48:45.793Z,99430.34
2022-12-31T06:51:17.292Z,99420.97
2022-12-31T06:53:46.317Z,99417.50
2022-12-31T06:56:15.325Z,99415.09
2022-12-31T06:58:42.469Z,99430.75
2022-12-31T07:01:18.933Z,99418.56
2022-12-31T07:03:46.817Z,99430.75
2022-12-31T07:06:17.760Z,99441.13
2022-12-31T07:08:45.590Z,99434.38
2022-12-31T07:11:13.446Z,99451.09
2022-12-31T07:13:43.290Z,99447.41
2022-12-31T07:16:15.986Z,99459.03
2022-12-31T07:18:53.268Z,99458.00
2022-12-31T07:21:24.809Z,99457.19
2022-12-31T07:23:51.893Z,99467.59
2022-12-31T07:26:19.739Z,99451.47
2022-12-31T07:28:46.607Z,99452.50
2022-12-31T07:31:16.449Z,99466.97
2022-12-31T07:33:43.699Z,99458.00
2022-12-31T07:36:14.129Z,99468.81
2022-12-31T07:38:42.568Z,99472.28
2022-12-31T07:41:16.742Z,99477.81
2022-12-31T07:43:45.272Z,99486.78
2022-12-31T07:46:12.797Z,99479.84
2022-12-31T07:48:39.817Z,99489.81
2022-12-31T07:51:07.099Z,99479.84
2022-12-31T07:53:34.814Z,99491.66
2022-12-31T07:56:03.470Z,99500.84
2022-12-31T07:58:32.860Z,99496.78
2022-12-31T08:01:01.062Z,99504.72
2022-12-31T08:03:38.019Z,99504.72
2022-12-31T08:06:09.253Z,99519.41
2022-12-31T08:08:47.117Z,99514.09
2022-12-31T08:11:23.844Z,99523.88
2022-12-31T08:13:53.166Z,99529.16
2022-12-31T08:16:20.287Z,99546.69
2022-12-31T08:18:48.005Z,99546.50
2022-12-31T08:21:16.246Z,99556.03
2022-12-31T08:23:47.497Z,99562.16
2022-12-31T08:26:17.945Z,99550.75
2022-12-31T08:28:53.735Z,99563.78
2022-12-31T08:31:25.761Z,99570.50
2022-12-31T08:34:02.034Z,99580.03
2022-12-31T08:36:32.980Z,99576.19
2022-12-31T08:39:09.731Z,99587.34
2022-12-31T08:41:45.425Z,99578.41
2022-12-31T08:44:21.800Z,99582.88
2022-12-31T08:47:12.294Z,99598.56
2022-12-31T08:49:43.698Z,99603.88
2022-12-31T08:52:20.832Z,99604.47
2022-12-31T08:54:48.239Z,99597.13
2022-12-31T08:57:25.053Z,99599.75
2022-12-31T08:59:55.574Z,99625.25
2022-12-31T09:02:32.811Z,99631.34
2022-12-31T09:05:09.682Z,99633.19
2022-12-31T09:07:40.106Z,99622.38
2022-12-31T09:10:17.618Z,99611.78
2022-12-31T09:12:57.335Z,99605.66
2022-12-31T09:15:32.489Z,99606.25
2022-12-31T09:18:00.358Z,99620.94
2022-12-31T09:20:42.372Z,99616.66
2022-12-31T09:23:11.899Z,99634.19
2022-12-31T09:25:43.835Z,99623.38
2022-12-31T09:28:22.730Z,99631.72
2022-12-31T09:30:55.499Z,99632.94
2022-12-31T09:33:32.144Z,99628.69
2022-12-31T09:36:03.285Z,99629.50
2022-12-31T09:38:41.128Z,99637.03
2022-12-31T09:41:17.055Z,99645.63
2022-12-31T09:43:58.949Z,99641.97
2022-12-31T09:46:32.585Z,99646.03
2022-12-31T09:49:07.799Z,99655.81
2022-12-31T09:51:48.031Z,99656.03
2022-12-31T09:54:19.969Z,99662.16
2022-12-31T09:56:58.846Z,99661.72
2022-12-31T09:59:40.206Z,99659.88
2022-12-31T10:02:16.729Z,99664.97
2022-12-31T10:04:52.978Z,99661.50
2022-12-31T10:07:26.840Z,99654.00
2022-12-31T10:10:02.356Z,99650.16
2022-12-31T10:12:29.346Z,99648.50
2022-12-31T10:15:05.575Z,99635.47
2022-12-31T10:17:41.890Z,99638.94
2022-12-31T10:20:18.900Z,99639.13
2022-12-31T10:22:55.633Z,99638.31
2022-12-31T10:25:38.737Z,99643.63
2022-12-31T10:28:14.679Z,99642.00
2022-12-31T10:30:48.594Z,99647.09
2022-12-31T10:33:20.460Z,99645.44
2022-12-31T10:35:48.448Z,99649.72
2022-12-31T10:38:22.766Z,99655.84
2022-12-31T10:41:02.121Z,99643.63
2022-12-31T10:43:44.710Z,99642.59
2022-12-31T10:46:23.139Z,99637.31
2022-12-31T10:48:59.854Z,99628.34
2022-12-31T10:51:36.587Z,99637.91
2022-12-31T10:54:12.550Z,99632.63
2022-12-31T10:56:48.644Z,99636.91
2022-12-31T10:59:22.889Z,99637.09
2022-12-31T11:02:05.177Z,99646.88
2022-12-31T11:04:45.551Z,99649.53
2022-12-31T11:07:12.173Z,99643.22
2022-12-31T11:09:47.381Z,99636.28
2022-12-31T11:12:27.101Z,99634.44
2022-12-31T11:15:13.838Z,99632.00
2022-12-31T11:17:50.140Z,99622.44
2022-12-31T11:20:24.225Z,99618.97
2022-12-31T11:23:05.719Z,99642.81
2022-12-31T11:25:44.800Z,99643.03
2022-12-31T11:28:14.252Z,99640.38
2022-12-31T11:30:58.236Z,99646.69
2022-12-31T11:33:35.226Z,99637.13
2022-12-31T11:36:14.616Z,99629.38
2022-12-31T11:38:47.345Z,99626.16
2022-12-31T11:41:26.075Z,99618.41
2022-12-31T11:43:55.763Z,99617.59
2022-12-31T11:46:43.938Z,99612.28
2022-12-31T11:49:13.902Z,99618.00
2022-12-31T11:51:50.038Z,99618.00
2022-12-31T11:54:38.800Z,99621.88
2022-12-31T11:57:18.433Z,99618.03
2022-12-31T11:59:47.041Z,99608.06
2022-12-31T12:02:27.103Z,99590.78
2022-12-31T12:04:59.070Z,99596.28
2022-12-31T12:07:28.469Z,99593.00
2022-12-31T12:10:02.935Z,99591.63
2022-12-31T12:12:41.273Z,99591.81
2022-12-31T12:15:11.379Z,99587.53
2022-12-31T12:17:40.191Z,99580.59
2022-12-31T12:20:22.975Z,99584.06
2022-12-31T12:23:01.359Z,99591.00
2022-12-31T12:25:41.269Z,99582.25
2022-12-31T12:28:22.032Z,99569.00
2022-12-31T12:31:00.455Z,99568.63
2022-12-31T12:33:35.202Z,99561.91
2022-12-31T12:36:10.918Z,99568.22
2022-12-31T12:38:37.977Z,99557.66
2022-12-31T12:41:11.425Z,99565.16
2022-12-31T12:43:40.756Z,99547.06
2022-12-31T12:46:21.215Z,99558.28
2022-12-31T12:48:49.754Z,99555.84
2022-12-31T12:51:24.018Z,99551.13
2022-12-31T12:54:00.825Z,99549.72
2022-12-31T12:56:30.783Z,99552.94
2022-12-31T12:59:04.283Z,99553.75
2022-12-31T13:01:43.220Z,99561.28
2022-12-31T13:04:34.052Z,99565.53
2022-12-31T13:07:18.589Z,99553.75
2022-12-31T13:10:05.658Z,99550.06
2022-12-31T13:13:22.220Z,99575.31
2022-12-31T13:15:37.861Z,99564.50
2022-12-31T13:18:22.245Z,99561.66
2022-12-31T13:20:58.159Z,99559.78
2022-12-31T13:23:39.816Z,99570.38
2022-12-31T13:26:12.130Z,99566.97
2022-12-31T13:29:00.781Z,99564.31
2022-12-31T13:31:32.547Z,99556.38
2022-12-31T13:34:07.116Z,99556.38
2022-12-31T13:36:38.984Z,99549.63
2022-12-31T13:39:07.752Z,99541.09
2022-12-31T13:41:43.659Z,99539.06
2022-12-31T13:44:22.068Z,99537.03
2022-12-31T13:46:54.898Z,99522.16
2022-12-31T13:49:32.462Z,99521.53
2022-12-31T13:52:12.368Z,99522.34
2022-12-31T13:54:56.461Z,99517.66
2022-12-31T13:57:23.056Z,99515.66
2022-12-31T13:59:56.795Z,99515.66
2022-12-31T14:02:38.396Z,99528.09
2022-12-31T14:05:16.847Z,99520.13
2022-12-31T14:07:47.699Z,99517.25
2022-12-31T14:10:26.587Z,99524.63
2022-12-31T14:13:03.288Z,99531.53
2022-12-31T14:15:39.763Z,99530.94
2022-12-31T14:18:21.602Z,99520.78
2022-12-31T14:20:56.850Z,99508.97
2022-12-31T14:23:32.130Z,99520.16
2022-12-31T14:26:07.073Z,99517.50
2022-12-31T14:28:55.841Z,99520.97
2022-12-31T14:31:26.676Z,99525.25
2022-12-31T14:33:58.397Z,99516.50
2022-12-31T14:36:33.878Z,99523.63
2022-12-31T14:39:08.544Z,99536.66
2022-12-31T14:41:36.807Z,99527.28
2022-12-31T14:44:09.111Z,99550.28
2022-12-31T14:46:36.145Z,99543.38
2022-12-31T14:49:15.551Z,99536.25
2022-12-31T14:51:42.516Z,99532.78
2022-12-31T14:54:18.527Z,99519.34
2022-12-31T14:56:45.970Z,99527.09
2022-12-31T14:59:22.859Z,99512.41
2022-12-31T15:01:49.758Z,99510.81
2022-12-31T15:04:16.799Z,99509.19
2022-12-31T15:06:52.927Z,99513.66
2022-12-31T15:09:29.576Z,99510.41
2022-12-31T15:12:06.206Z,99499.41
2022-12-31T15:14:40.335Z,99512.03
2022-12-31T15:17:06.947Z,99515.13
2022-12-31T15:19:42.237Z,99518.97
2022-12-31T15:22:25.121Z,99518.78
2022-12-31T15:24:51.855Z,99519.59
2022-12-31T15:27:31.398Z,99523.63
2022-12-31T15:29:58.105Z,99514.47
2022-12-31T15:32:29.876Z,99523.44
2022-12-31T15:35:06.038Z,99533.00
2022-12-31T15:37:35.122Z,99529.16
2022-12-31T15:40:17.391Z,99516.53
2022-12-31T15:42:51.207Z,99525.09
2022-12-31T15:45:26.856Z,99537.09
2022-12-31T15:47:58.677Z,99541.78
2022-12-31T15:50:28.535Z,99544.84
2022-12-31T15:53:01.079Z,99556.47
2022-12-31T15:55:28.554Z,99545.88
2022-12-31T15:58:00.561Z,99544.41
2022-12-31T16:00:31.725Z,99544.03
2022-12-31T16:03:01.721Z,99536.09
2022-12-31T16:05:38.905Z,99547.50
2022-12-31T16:08:08.913Z,99543.66
2022-12-31T16:10:38.484Z,99561.34
2022-12-31T16:13:07.179Z,99548.31
2022-12-31T16:15:40.924Z,99536.09
2022-12-31T16:18:25.839Z,99541.59
2022-12-31T16:20:57.657Z,99553.22
2022-12-31T16:23:29.211Z,99528.59
2022-12-31T16:26:07.288Z,99529.84
2022-12-31T16:28:35.817Z,99531.44
2022-12-31T16:31:06.117Z,99530.63
2022-12-31T16:33:37.113Z,99529.03
2022-12-31T16:36:05.581Z,99533.31
2022-12-31T16:38:34.301Z,99538.59
2022-12-31T16:41:11.741Z,99547.97
2022-12-31T16:43:49.015Z,99546.75
2022-12-31T16:46:28.209Z,99545.72
2022-12-31T16:48:58.465Z,99541.25
2022-12-31T16:51:36.741Z,99537.59
2022-12-31T16:54:05.830Z,99539.00
2022-12-31T16:56:37.836Z,99548.38
2022-12-31T16:59:30.436Z,99547.97
2022-12-31T17:02:07.084Z,99554.69
2022-12-31T17:04:53.541Z,99547.16
2022-12-31T17:07:25.917Z,99544.53
2022-12-31T17:10:09.384Z,99545.34
2022-12-31T17:13:17.091Z,99550.63
2022-12-31T17:15:44.699Z,99556.31
2022-12-31T17:18:25.362Z,99550.25
2022-12-31T17:20:54.509Z,99552.88
2022-12-31T17:23:27.304Z,99544.94
2022-12-31T17:26:05.872Z,99544.94
2022-12-31T17:28:45.304Z,99546.34
2022-12-31T17:31:26.795Z,99545.94
2022-12-31T17:33:54.850Z,99541.69
2022-12-31T17:36:27.694Z,99542.88
2022-12-31T17:38:58.182Z,99544.09
2022-12-31T17:41:28.276Z,99541.03
2022-12-31T17:43:56.178Z,99538.19
2022-12-31T17:46:29.635Z,99548.19
2022-12-31T17:49:00.635Z,99534.13
2022-12-31T17:51:41.271Z,99551.00
2022-12-31T17:54:23.094Z,99541.03
2022-12-31T17:56:52.804Z,99538.59
2022-12-31T17:59:25.945Z,99542.25
2022-12-31T18:02:04.780Z,99548.38
2022-12-31T18:04:31.662Z,99536.97
2022-12-31T18:06:59.417Z,99539.63
2022-12-31T18:09:28.181Z,99535.97
2022-12-31T18:12:01.469Z,99536.53
2022-12-31T18:14:28.722Z,99543.09
2022-12-31T18:17:00.246Z,99542.88
2022-12-31T18:20:04.882Z,99525.56
2022-12-31T18:22:35.369Z,99538.38
2022-12-31T18:25:03.625Z,99538.75
2022-12-31T18:27:33.744Z,99543.84
2022-12-31T18:30:05.802Z,99547.69
2022-12-31T18:32:38.046Z,99524.50
2022-12-31T18:35:17.038Z,99533.88
2022-12-31T18:37:59.479Z,99531.63
2022-12-31T18:40:28.319Z,99535.47
2022-12-31T18:43:01.123Z,99548.28
2022-12-31T18:45:32.183Z,99547.06
2022-12-31T18:48:00.025Z,99559.69
2022-12-31T18:50:28.515Z,99531.63
2022-12-31T18:52:56.723Z,99537.94
2022-12-31T18:55:27.189Z,99550.72
2022-12-31T18:57:58.265Z,99544.66
2022-12-31T19:00:26.992Z,99544.41
2022-12-31T19:02:55.956Z,99557.66
2022-12-31T19:05:24.362Z,99554.63
2022-12-31T19:07:59.439Z,99573.75
2022-12-31T19:10:29.382Z,99572.94
2022-12-31T19:12:56.029Z,99561.31
2022-12-31T19:15:38.334Z,99569.25
2022-12-31T19:18:05.526Z,99567.22
2022-12-31T19:20:34.748Z,99569.69
2022-12-31T19:23:04.315Z,99573.16
2022-12-31T19:25:34.445Z,99566.63
2022-12-31T19:28:06.360Z,99575.19
2022-12-31T19:30:34.036Z,99572.91
2022-12-31T19:33:00.831Z,99564.53
2022-12-31T19:35:30.748Z,99580.22
2022-12-31T19:37:57.459Z,99589.78
2022-12-31T19:40:25.960Z,99593.06
2022-12-31T19:42:57.133Z,99611.97
2022-12-31T19:45:25.930Z,99622.13
2022-12-31T19:47:56.373Z,99606.88
2022-12-31T19:50:28.735Z,99615.00
2022-12-31T19:53:00.110Z,99632.09
2022-12-31T19:55:29.204Z,99631.88
2022-12-31T19:57:57.853Z,99650.00
2022-12-31T20:00:25.828Z,99638.38
2022-12-31T20:02:54.117Z,99635.72
2022-12-31T20:05:28.204Z,99639.59
2022-12-31T20:07:58.170Z,99633.28
2022-12-31T20:10:25.611Z,99640.84
2022-12-31T20:12:53.361Z,99629.19
2022-12-31T20:15:22.152Z,99638.38
2022-12-31T20:17:49.827Z,99638.19
2022-12-31T20:20:18.393Z,99643.69
2022-12-31T20:22:47.598Z,99652.44
2022-12-31T20:25:15.698Z,99656.72
2022-12-31T20:27:45.773Z,99659.38
2022-12-31T20:30:17.493Z,99681.97
2022-12-31T20:32:45.143Z,99686.25
2022-12-31T20:35:20.329Z,99690.72
2022-12-31T20:37:47.084Z,99689.50
2022-12-31T20:40:24.454Z,99682.59
2022-12-31T20:42:51.225Z,99698.91
2022-12-31T20:45:18.333Z,99699.09
2022-12-31T20:47:45.116Z,99719.47
2022-12-31T20:50:12.657Z,99721.28
2022-12-31T20:52:40.047Z,99720.91
2022-12-31T20:55:14.492Z,99726.41
2022-12-31T20:57:44.300Z,99738.81
2022-12-31T21:00:12.395Z,99724.56
2022-12-31T21:02:43.512Z,99736.41
2022-12-31T21:05:12.059Z,99736.41
2022-12-31T21:07:41.127Z,99738.63
2022-12-31T21:10:08.802Z,99744.75
2022-12-31T21:12:45.629Z,99757.16
2022-12-31T21:15:13.567Z,99754.13
2022-12-31T21:17:41.755Z,99747.19
2022-12-31T21:20:08.696Z,99746.38
2022-12-31T21:22:35.499Z,99755.13
2022-12-31T21:25:03.072Z,99758.59
2022-12-31T21:27:31.634Z,99756.13
2022-12-31T21:32:46.674Z,99768.16
2022-12-31T21:35:42.349Z,99757.78
2022-12-31T21:38:08.297Z,99763.06
2022-12-31T21:40:35.720Z,99757.19
2022-12-31T21:43:03.481Z,99765.13
2022-12-31T21:45:31.000Z,99762.88
2022-12-31T21:48:11.268Z,99770.41
2022-12-31T21:50:40.008Z,99769.00
2022-12-31T21:53:07.628Z,99772.00
2022-12-31T21:55:50.417Z,99775.06
2022-12-31T21:58:26.402Z,99777.72
2022-12-31T22:01:06.151Z,99780.34
2022-12-31T22:03:33.677Z,99783.19
2022-12-31T22:06:10.769Z,99784.22
2022-12-31T22:08:38.381Z,99787.06
2022-12-31T22:11:06.164Z,99782.78
2022-12-31T22:13:33.265Z,99774.03
2022-12-31T22:16:05.326Z,99774.22
2022-12-31T22:18:35.661Z,99782.38
2022-12-31T22:21:04.674Z,99792.16
2022-12-31T22:23:32.459Z,99813.09
2022-12-31T22:25:59.136Z,99814.94
2022-12-31T22:28:38.586Z,99805.97
2022-12-31T22:31:06.849Z,99807.63
2022-12-31T22:33:33.707Z,99800.88
2022-12-31T22:36:01.887Z,99809.88
2022-12-31T22:38:29.383Z,99820.63
2022-12-31T22:41:06.364Z,99829.78
2022-12-31T22:43:34.330Z,99820.25
2022-12-31T22:46:12.730Z,99824.91
2022-12-31T22:48:40.573Z,99823.69
2022-12-31T22:51:09.271Z,99830.59
2022-12-31T22:53:39.744Z,99846.84
2022-12-31T22:56:08.474Z,99851.97
2022-12-31T22:58:36.442Z,99843.00
2022-12-31T23:01:05.615Z,99843.19
2022-12-31T23:03:33.149Z,99857.25
2022-12-31T23:06:05.595Z,99859.06
2022-12-31T23:08:34.346Z,99862.13
2022-12-31T23:11:01.716Z,99870.25
2022-12-31T23:13:42.139Z,99880.84
2022-12-31T23:16:25.962Z,99867.19
2022-12-31T23:19:11.790Z,99863.13
2022-12-31T23:21:48.438Z,99864.13
2022-12-31T23:24:21.461Z,99876.34
2022-12-31T23:26:51.568Z,99873.09
2022-12-31T23:29:22.646Z,99875.50
2022-12-31T23:31:49.419Z,99878.78
2022-12-31T23:34:16.458Z,99883.44
2022-12-31T23:36:43.235Z,99881.63
2022-12-31T23:39:09.923Z,99881.63
2022-12-31T23:41:40.378Z,99876.53
2022-12-31T23:44:07.433Z,99888.75
2022-12-31T23:46:34.172Z,99890.38
2022-12-31T23:49:00.808Z,99877.97
2022-12-31T23:51:27.455Z,99871.03
2022-12-31T23:53:54.295Z,99884.09
2022-12-31T23:56:23.885Z,99879.59
2022-12-31T23:58:55.234Z,99890.38
